Terminal Aerodrome Forecast
Issued by NWS Sioux Falls, SD

Home | Current Version | Previous Version | Text Only | Print | Product List | Glossary On
Versions: 1 2 3 4 5 6 7 8 9 10 11 12 13 14 15 16 17 18 19
000
FTUS43 KFSD 291726
TAFFSD
TAF
KFSD 291726Z 2918/3018 28010KT P6SM SCT040
     FM300000 VRB04KT P6SM FEW250
     FM300700 09006KT P6SM BKN120
      TEMPO 3009/3011 P6SM -TSRA BKN080CB
     FM301500 16013KT P6SM SCT080=

USA.gov is the U.S. government's official web portal to all federal, state and local government web resources and services.